createdAt,value
2018-12-09T00:01:51.883Z,92.60
2018-12-09T00:04:55.887Z,92.80
2018-12-09T00:07:59.898Z,93.10
2018-12-09T00:11:04.509Z,93.30
2018-12-09T00:14:08.501Z,93.40
2018-12-09T00:17:12.502Z,93.50
2018-12-09T00:20:16.691Z,93.50
2018-12-09T00:23:20.685Z,93.60
2018-12-09T00:26:24.685Z,93.60
2018-12-09T00:29:28.686Z,93.70
2018-12-09T00:32:32.798Z,93.70
2018-12-09T00:35:36.801Z,93.70
2018-12-09T00:38:40.794Z,93.80
2018-12-09T00:41:44.811Z,93.90
2018-12-09T00:44:48.798Z,94.20
2018-12-09T00:47:52.833Z,94.10
2018-12-09T00:50:56.955Z,94.10
2018-12-09T00:54:01.103Z,94.20
2018-12-09T00:57:05.202Z,94.30
2018-12-09T01:00:12.277Z,94.30
2018-12-09T01:03:17.397Z,94.40
2018-12-09T01:06:21.590Z,94.30
2018-12-09T01:09:25.601Z,94.40
2018-12-09T01:12:29.703Z,94.40
2018-12-09T01:15:33.801Z,94.40
2018-12-09T01:18:37.877Z,94.40
2018-12-09T01:21:42.062Z,94.50
2018-12-09T01:24:46.059Z,94.60
2018-12-09T01:27:50.082Z,94.80
2018-12-09T01:30:54.114Z,94.90
2018-12-09T01:33:58.103Z,95.00
2018-12-09T01:37:02.115Z,95.20
2018-12-09T01:40:06.575Z,95.30
2018-12-09T01:43:10.666Z,95.20
2018-12-09T01:46:14.674Z,95.20
2018-12-09T01:49:19.049Z,95.20
2018-12-09T01:52:23.067Z,95.20
2018-12-09T01:55:27.657Z,95.10
2018-12-09T01:58:31.767Z,95.10
2018-12-09T02:01:36.151Z,95.00
2018-12-09T02:04:40.139Z,94.60
2018-12-09T02:07:44.154Z,94.20
2018-12-09T02:10:48.146Z,94.00
2018-12-09T02:13:52.241Z,93.80
2018-12-09T02:16:56.413Z,93.60
2018-12-09T02:20:00.440Z,93.20
2018-12-09T02:23:04.629Z,92.80
2018-12-09T02:26:08.723Z,92.40
2018-12-09T02:29:12.730Z,92.20
2018-12-09T02:32:16.740Z,92.00
2018-12-09T02:35:20.819Z,91.90
2018-12-09T02:38:24.822Z,91.70
2018-12-09T02:41:28.929Z,91.50
2018-12-09T02:44:32.933Z,91.20
2018-12-09T02:47:36.942Z,91.20
2018-12-09T02:50:40.932Z,91.10
2018-12-09T02:53:45.039Z,91.10
2018-12-09T02:56:49.129Z,91.20
2018-12-09T02:59:53.126Z,91.10
2018-12-09T03:02:57.134Z,90.50
2018-12-09T03:06:01.202Z,90.20
2018-12-09T03:09:07.014Z,90.00
2018-12-09T03:12:11.021Z,89.90
2018-12-09T03:15:15.198Z,89.70
2018-12-09T03:18:19.219Z,89.10
2018-12-09T03:21:23.282Z,89.00
2018-12-09T03:24:27.604Z,88.70
2018-12-09T03:27:31.792Z,88.30
2018-12-09T03:30:35.866Z,87.90
2018-12-09T03:33:39.887Z,88.30
2018-12-09T03:36:43.892Z,88.70
2018-12-09T03:39:47.994Z,89.20
2018-12-09T03:42:52.014Z,90.00
2018-12-09T03:45:56.114Z,91.50
2018-12-09T03:49:00.189Z,93.70
2018-12-09T03:52:04.178Z,95.70
2018-12-09T03:55:08.187Z,96.20
2018-12-09T03:58:12.665Z,96.30
2018-12-09T04:01:17.042Z,96.90
2018-12-09T04:04:21.036Z,97.80
2018-12-09T04:07:25.050Z,98.80
2018-12-09T04:10:29.043Z,99.90
2018-12-09T04:13:33.072Z,99.90
2018-12-09T04:16:37.254Z,99.90
2018-12-09T04:19:41.268Z,99.90
2018-12-09T04:22:45.349Z,99.90
2018-12-09T04:25:49.349Z,99.90
2018-12-09T04:28:53.453Z,99.90
2018-12-09T04:31:57.482Z,99.90
2018-12-09T04:35:01.582Z,99.90
2018-12-09T04:38:05.673Z,99.90
2018-12-09T04:41:09.779Z,99.90
2018-12-09T04:44:13.785Z,99.90
2018-12-09T04:47:17.883Z,99.90
2018-12-09T04:50:21.977Z,99.90
2018-12-09T04:53:26.410Z,99.90
2018-12-09T04:56:30.404Z,99.90
2018-12-09T04:59:37.999Z,99.90
2018-12-09T05:02:42.083Z,99.90
2018-12-09T05:05:46.266Z,99.90
2018-12-09T05:08:50.905Z,99.90
2018-12-09T05:11:54.914Z,99.90
2018-12-09T05:14:58.923Z,99.90
2018-12-09T05:18:03.261Z,99.90
2018-12-09T05:21:07.314Z,99.90
2018-12-09T05:24:11.320Z,99.90
2018-12-09T05:27:15.333Z,99.90
2018-12-09T05:30:19.909Z,99.90
2018-12-09T05:33:23.907Z,99.90
2018-12-09T05:36:27.913Z,99.90
2018-12-09T05:39:31.939Z,99.90
2018-12-09T05:42:35.935Z,99.90
2018-12-09T05:45:40.050Z,99.90
2018-12-09T05:48:44.062Z,99.90
2018-12-09T05:51:48.074Z,99.90
2018-12-09T05:54:52.166Z,99.90
2018-12-09T05:57:56.169Z,99.90
2018-12-09T06:01:00.263Z,99.90
2018-12-09T06:04:04.361Z,99.90
2018-12-09T06:07:08.394Z,99.90
2018-12-09T06:10:12.390Z,99.90
2018-12-09T06:13:16.385Z,99.90
2018-12-09T06:16:20.407Z,99.90
2018-12-09T06:19:24.405Z,99.90
2018-12-09T06:22:28.506Z,99.90
2018-12-09T06:25:32.598Z,99.90
2018-12-09T06:28:37.054Z,99.90
2018-12-09T06:31:41.063Z,99.90
2018-12-09T06:34:45.082Z,99.90
2018-12-09T06:37:49.269Z,99.90
2018-12-09T06:40:53.522Z,99.90
2018-12-09T06:43:57.578Z,99.90
2018-12-09T06:47:01.720Z,99.90
2018-12-09T06:50:08.714Z,99.90
2018-12-09T06:53:12.706Z,99.90
2018-12-09T06:56:16.714Z,99.90
2018-12-09T06:59:21.488Z,99.90
2018-12-09T07:02:26.098Z,99.90
2018-12-09T07:05:30.304Z,99.90
2018-12-09T07:08:34.513Z,99.90
2018-12-09T07:11:38.880Z,99.90
2018-12-09T07:14:43.662Z,99.90
2018-12-09T07:17:47.665Z,99.90
2018-12-09T07:20:51.686Z,99.90
2018-12-09T07:23:55.894Z,99.90
2018-12-09T07:26:59.958Z,99.90
2018-12-09T07:30:04.568Z,99.90
2018-12-09T07:33:08.549Z,99.90
2018-12-09T07:36:12.762Z,99.90
2018-12-09T07:39:17.041Z,99.90
2018-12-09T07:42:21.395Z,99.90
2018-12-09T07:45:25.933Z,99.90
2018-12-09T07:48:29.927Z,99.90
2018-12-09T07:51:34.009Z,99.90
2018-12-09T07:54:38.331Z,99.90
2018-12-09T07:57:42.351Z,99.90
2018-12-09T08:00:46.338Z,99.90
2018-12-09T08:03:50.338Z,99.90
2018-12-09T08:06:54.933Z,99.90
2018-12-09T08:09:58.935Z,99.90
2018-12-09T08:13:03.025Z,99.90
2018-12-09T08:16:07.138Z,99.90
2018-12-09T08:19:11.227Z,99.90
2018-12-09T08:22:15.262Z,99.90
2018-12-09T08:28:21.734Z,99.90
2018-12-09T08:31:25.729Z,99.90
2018-12-09T08:34:29.805Z,99.70
2018-12-09T08:37:33.811Z,99.70
2018-12-09T08:40:37.822Z,99.60
2018-12-09T08:43:41.813Z,99.10
2018-12-09T08:46:45.846Z,98.10
2018-12-09T08:49:49.931Z,97.60
2018-12-09T08:52:54.009Z,97.50
2018-12-09T08:55:58.083Z,97.20
2018-12-09T08:59:02.170Z,96.70
2018-12-09T09:02:06.272Z,96.20
2018-12-09T09:05:10.393Z,95.60
2018-12-09T09:08:14.411Z,94.60
2018-12-09T09:11:18.482Z,94.40
2018-12-09T09:14:22.571Z,94.10
2018-12-09T09:17:26.546Z,93.40
2018-12-09T09:20:30.551Z,92.70
2018-12-09T09:23:34.651Z,93.30
2018-12-09T09:26:38.727Z,93.00
2018-12-09T09:29:42.766Z,92.00
2018-12-09T09:32:46.770Z,92.00
2018-12-09T09:35:50.835Z,91.40
2018-12-09T09:38:55.778Z,91.10
2018-12-09T09:42:00.005Z,91.00
2018-12-09T09:45:04.598Z,90.80
2018-12-09T09:48:08.606Z,90.70
2018-12-09T09:51:12.628Z,90.40
2018-12-09T09:54:16.726Z,90.50
2018-12-09T09:57:20.734Z,90.50
2018-12-09T10:00:24.745Z,90.60
2018-12-09T10:03:28.753Z,90.60
2018-12-09T10:06:32.761Z,90.50
2018-12-09T10:09:36.783Z,89.90
2018-12-09T10:12:40.799Z,90.00
2018-12-09T10:15:44.802Z,90.40
2018-12-09T10:18:48.932Z,90.50
2018-12-09T10:21:52.941Z,91.40
2018-12-09T10:24:56.962Z,90.70
2018-12-09T10:28:00.982Z,90.80
2018-12-09T10:31:05.160Z,90.50
2018-12-09T10:34:09.299Z,90.80
2018-12-09T10:37:13.601Z,90.40
2018-12-09T10:40:17.615Z,90.60
2018-12-09T10:43:21.623Z,90.70
2018-12-09T10:46:25.885Z,90.60
2018-12-09T10:49:31.719Z,90.60
2018-12-09T10:52:36.136Z,90.70
2018-12-09T10:55:40.231Z,90.60
2018-12-09T10:58:44.251Z,91.00
2018-12-09T11:01:52.334Z,90.70
2018-12-09T11:04:56.439Z,90.40
2018-12-09T11:08:00.466Z,90.10
2018-12-09T11:11:04.559Z,90.20
2018-12-09T11:14:08.581Z,89.80
2018-12-09T11:17:12.592Z,88.90
2018-12-09T11:20:16.631Z,88.70
2018-12-09T11:23:20.646Z,88.20
2018-12-09T11:26:24.820Z,87.40
2018-12-09T11:29:28.831Z,87.20
2018-12-09T11:32:32.837Z,87.40
2018-12-09T11:35:36.873Z,87.50
2018-12-09T11:38:40.898Z,85.70
2018-12-09T11:41:45.109Z,86.10
2018-12-09T11:44:49.246Z,86.50
2018-12-09T11:47:53.381Z,86.50
2018-12-09T11:50:57.394Z,86.60
2018-12-09T11:54:01.401Z,86.80
2018-12-09T11:57:05.401Z,87.00
2018-12-09T12:00:12.715Z,87.80
2018-12-09T12:03:16.725Z,88.30
2018-12-09T12:06:20.762Z,89.10
2018-12-09T12:09:25.255Z,89.70
2018-12-09T12:12:29.266Z,90.10
2018-12-09T12:15:33.273Z,90.20
2018-12-09T12:18:37.385Z,90.50
2018-12-09T12:21:41.397Z,90.30
2018-12-09T12:24:45.552Z,90.00
2018-12-09T12:27:49.578Z,90.20
2018-12-09T12:30:53.615Z,90.30
2018-12-09T12:33:57.702Z,90.30
2018-12-09T12:37:01.769Z,90.30
2018-12-09T12:40:06.167Z,90.30
2018-12-09T12:43:10.470Z,90.30
2018-12-09T12:46:14.473Z,90.40
2018-12-09T12:49:18.580Z,90.40
2018-12-09T12:52:22.749Z,90.50
2018-12-09T12:55:26.765Z,90.60
2018-12-09T12:58:30.896Z,90.40
2018-12-09T13:01:34.917Z,90.40
2018-12-09T13:04:38.945Z,90.60
2018-12-09T13:07:43.049Z,90.60
2018-12-09T13:10:47.070Z,90.70
2018-12-09T13:13:51.169Z,90.70
2018-12-09T13:16:55.178Z,91.00
2018-12-09T13:19:59.272Z,91.20
2018-12-09T13:23:03.294Z,91.30
2018-12-09T13:26:07.398Z,91.60
2018-12-09T13:29:11.546Z,92.00
2018-12-09T13:32:15.541Z,92.20
2018-12-09T13:35:19.555Z,92.30
2018-12-09T13:38:23.569Z,92.30
2018-12-09T13:41:27.602Z,92.60
2018-12-09T13:44:31.610Z,92.50
2018-12-09T13:47:35.662Z,92.40
2018-12-09T13:50:39.745Z,92.00
2018-12-09T13:53:43.847Z,92.00
2018-12-09T13:56:47.901Z,91.80
2018-12-09T13:59:51.923Z,91.80
2018-12-09T14:02:55.962Z,91.70
2018-12-09T14:06:00.028Z,91.60
2018-12-09T14:09:06.396Z,91.50
2018-12-09T14:12:10.419Z,91.50
2018-12-09T14:15:15.025Z,91.70
2018-12-09T14:18:19.049Z,91.80
2018-12-09T14:21:23.081Z,92.10
2018-12-09T14:24:27.094Z,92.50
2018-12-09T14:27:31.137Z,92.50
2018-12-09T14:30:35.464Z,92.70
2018-12-09T14:33:39.552Z,93.30
2018-12-09T14:36:43.550Z,93.70
2018-12-09T14:39:47.561Z,94.10
2018-12-09T14:42:51.590Z,94.40
2018-12-09T14:45:55.593Z,94.50
2018-12-09T14:48:59.699Z,94.40
2018-12-09T14:52:03.801Z,94.40
2018-12-09T14:55:07.921Z,94.10
2018-12-09T14:58:11.934Z,93.90
2018-12-09T15:01:16.299Z,93.50
2018-12-09T15:04:20.370Z,93.10
2018-12-09T15:07:24.388Z,92.80
2018-12-09T15:10:28.572Z,92.60
2018-12-09T15:13:32.575Z,92.40
2018-12-09T15:16:36.694Z,92.20
2018-12-09T15:19:40.723Z,91.90
2018-12-09T15:22:44.838Z,91.80
2018-12-09T15:25:48.853Z,91.60
2018-12-09T15:28:52.859Z,91.50
2018-12-09T15:31:56.861Z,91.40
2018-12-09T15:35:01.007Z,91.30
2018-12-09T15:38:05.085Z,91.20
2018-12-09T15:41:09.100Z,91.20
2018-12-09T15:44:13.121Z,91.30
2018-12-09T15:47:17.121Z,91.50
2018-12-09T15:50:21.306Z,91.70
2018-12-09T15:53:25.430Z,92.00
2018-12-09T15:56:29.539Z,92.50
2018-12-09T15:59:33.559Z,92.60
2018-12-09T16:02:37.600Z,93.20
2018-12-09T16:05:41.634Z,93.80
2018-12-09T16:08:45.631Z,94.10
2018-12-09T16:11:49.661Z,94.40
2018-12-09T16:14:53.742Z,94.50
2018-12-09T16:17:57.783Z,94.50
2018-12-09T16:21:01.900Z,94.90
2018-12-09T16:24:06.026Z,94.90
2018-12-09T16:27:10.052Z,95.00
2018-12-09T16:30:14.154Z,95.00
2018-12-09T16:33:18.267Z,95.30
2018-12-09T16:36:22.271Z,95.70
2018-12-09T16:39:26.339Z,95.90
2018-12-09T16:42:30.719Z,96.10
2018-12-09T16:45:34.994Z,96.10
2018-12-09T16:48:39.007Z,96.00
2018-12-09T16:51:43.137Z,95.80
2018-12-09T16:54:47.270Z,95.70
2018-12-09T16:57:51.382Z,95.60
2018-12-09T17:00:55.607Z,95.50
2018-12-09T17:03:59.862Z,95.50
2018-12-09T17:07:04.249Z,95.30
2018-12-09T17:10:08.329Z,95.00
2018-12-09T17:13:12.475Z,94.90
2018-12-09T17:16:16.477Z,94.70
2018-12-09T17:19:20.947Z,94.50
2018-12-09T17:22:25.055Z,94.30
2018-12-09T17:25:29.053Z,94.10
2018-12-09T17:28:33.169Z,93.90
2018-12-09T17:31:37.270Z,93.90
2018-12-09T17:34:41.274Z,93.90
2018-12-09T17:37:45.330Z,93.80
2018-12-09T17:40:49.340Z,93.80
2018-12-09T17:43:53.459Z,93.90
2018-12-09T17:46:57.458Z,94.10
2018-12-09T17:50:01.471Z,94.10
2018-12-09T17:53:06.100Z,94.20
2018-12-09T17:56:10.155Z,94.50
2018-12-09T17:59:14.311Z,94.50
2018-12-09T18:02:18.359Z,94.60
2018-12-09T18:05:22.374Z,94.70
2018-12-09T18:08:26.445Z,94.80
2018-12-09T18:11:30.535Z,94.80
2018-12-09T18:14:34.550Z,94.90
2018-12-09T18:17:38.748Z,94.80
2018-12-09T18:20:43.015Z,94.70
2018-12-09T18:23:47.013Z,94.50
2018-12-09T18:26:51.051Z,94.30
2018-12-09T18:29:55.135Z,94.20
2018-12-09T18:32:59.221Z,94.20
2018-12-09T18:36:03.346Z,94.10
2018-12-09T18:39:07.554Z,94.00
2018-12-09T18:42:11.556Z,93.90
2018-12-09T18:45:15.578Z,93.60
2018-12-09T18:48:19.616Z,93.90
2018-12-09T18:51:23.701Z,93.50
2018-12-09T18:54:27.677Z,93.40
2018-12-09T18:57:31.795Z,93.30
2018-12-09T19:00:35.789Z,93.00
2018-12-09T19:03:39.793Z,93.10
2018-12-09T19:06:44.771Z,93.20
2018-12-09T19:09:48.890Z,93.20
2018-12-09T19:12:54.316Z,93.20
2018-12-09T19:15:58.341Z,93.30
2018-12-09T19:19:02.985Z,93.40
2018-12-09T19:22:06.988Z,93.50
2018-12-09T19:25:11.182Z,93.40
2018-12-09T19:28:15.562Z,93.50
2018-12-09T19:31:20.336Z,93.70
2018-12-09T19:34:25.656Z,93.60
2018-12-09T19:37:29.866Z,93.60
2018-12-09T19:40:35.701Z,93.70
2018-12-09T19:43:40.186Z,93.80
2018-12-09T19:46:45.449Z,93.80
2018-12-09T19:49:49.446Z,93.80
2018-12-09T19:52:53.673Z,93.80
2018-12-09T19:55:57.864Z,93.80
2018-12-09T19:59:01.865Z,93.80
2018-12-09T20:02:06.189Z,93.70
2018-12-09T20:05:10.714Z,93.70
2018-12-09T20:08:14.751Z,93.60
2018-12-09T20:11:18.965Z,93.60
2018-12-09T20:14:22.974Z,93.40
2018-12-09T20:17:26.987Z,93.40
2018-12-09T20:20:31.035Z,93.40
2018-12-09T20:23:35.122Z,93.60
2018-12-09T20:26:39.142Z,93.40
2018-12-09T20:29:43.136Z,93.30
2018-12-09T20:32:47.234Z,93.30
2018-12-09T20:35:51.270Z,93.00
2018-12-09T20:38:55.334Z,93.10
2018-12-09T20:41:59.385Z,93.10
2018-12-09T20:45:04.092Z,92.90
2018-12-09T20:48:13.453Z,92.90
2018-12-09T20:51:14.205Z,93.00
2018-12-09T20:54:18.207Z,93.10
2018-12-09T20:57:22.421Z,93.20
2018-12-09T21:00:26.445Z,93.20
2018-12-09T21:03:30.470Z,93.10
2018-12-09T21:06:34.591Z,93.00
2018-12-09T21:09:38.666Z,92.80
2018-12-09T21:12:42.696Z,92.70
2018-12-09T21:15:46.828Z,92.80
2018-12-09T21:18:50.965Z,93.20
2018-12-09T21:21:55.710Z,93.10
2018-12-09T21:24:59.749Z,93.20
2018-12-09T21:28:03.778Z,93.30
2018-12-09T21:31:07.781Z,93.40
2018-12-09T21:34:11.798Z,93.50
2018-12-09T21:37:15.825Z,93.60
2018-12-09T21:40:21.026Z,93.90
2018-12-09T21:43:25.129Z,94.00
2018-12-09T21:46:29.180Z,94.20
2018-12-09T21:49:33.198Z,94.30
2018-12-09T21:52:37.206Z,94.50
2018-12-09T21:55:41.323Z,94.70
2018-12-09T21:58:45.351Z,94.90
2018-12-09T22:01:49.362Z,95.00
2018-12-09T22:04:53.462Z,94.80
2018-12-09T22:07:57.477Z,94.80
2018-12-09T22:11:01.494Z,94.60
2018-12-09T22:14:05.673Z,94.60
2018-12-09T22:17:09.743Z,94.30
2018-12-09T22:20:13.882Z,94.50
2018-12-09T22:23:17.905Z,94.20
2018-12-09T22:26:22.017Z,94.00
2018-12-09T22:29:26.047Z,93.70
2018-12-09T22:32:30.112Z,94.00
2018-12-09T22:35:35.210Z,94.10
2018-12-09T22:38:39.226Z,94.30
2018-12-09T22:41:43.320Z,94.20
2018-12-09T22:44:47.352Z,94.10
2018-12-09T22:47:51.576Z,94.20
2018-12-09T22:50:55.754Z,94.10
2018-12-09T22:54:00.270Z,93.90
2018-12-09T22:57:04.538Z,93.90
2018-12-09T23:00:30.335Z,94.00
2018-12-09T23:03:34.367Z,94.00
2018-12-09T23:06:38.373Z,94.30
2018-12-09T23:09:42.467Z,93.80
2018-12-09T23:12:46.601Z,93.70
2018-12-09T23:15:50.611Z,93.50
2018-12-09T23:18:54.630Z,93.50
2018-12-09T23:21:58.638Z,93.30
2018-12-09T23:25:02.646Z,92.90
2018-12-09T23:28:06.662Z,92.70
2018-12-09T23:31:10.756Z,92.60
2018-12-09T23:34:14.764Z,92.40
2018-12-09T23:37:18.774Z,92.70
2018-12-09T23:40:22.865Z,92.80
2018-12-09T23:43:26.895Z,92.90
2018-12-09T23:46:30.977Z,93.80
2018-12-09T23:49:35.000Z,95.50
2018-12-09T23:52:38.998Z,96.40
2018-12-09T23:55:43.047Z,97.10
2018-12-09T23:58:47.554Z,97.80
